»·PEaware :: N262H KFUL-CL77

N262H :: KFUL-CL77

FLIGHT INFORMATION

Flight Status: Arrived
Operator: Privately registered:
United States
More flights under this callsign
Pilot: Paul K. (16555)
Aircraft: BEECH AIRCRAFT BARON
(BE58)
More flights by this aircraft type
Origin: KFUL Fullerton Mun
United States
Destination: CL77 Bonny Doon Village
Canada
More flights between these airports :: More routes between these airports
Route:
File this flight plan on PilotEdge
Remarks:
Altitude:
(Current/Filed)
10,500ft
Speed:
(Current/Filed)
180kts
Departed: 30-Sep-17 07:02 PM
Arrived: 30-Sep-17 08:49 PM
Distance/Time
Traveled:
265nm/1:46
Distance/Time
To Go:
Arrived

Flight Plot

Page will automatically refresh every two minutes.

Flight plan parsing failed; only flown route is shown


Map Options




Map Legend


Flown Route
Filed Route
Departure Airport
Arrival Airport
Navaid (VOR, NDB)
Fix

Horizontal Profiles

Position Reports

Time Latitude Longitude Heading Altitude Ground
Speed
30-Sep-17 18:48 33.872825 -117.980909 262 99ft 0kts
30-Sep-17 18:49 33.872825 -117.980909 262 99ft 0kts
30-Sep-17 18:50 33.872825 -117.980909 262 99ft 0kts
30-Sep-17 18:51 33.872825 -117.980909 262 99ft 0kts
30-Sep-17 18:52 33.872825 -117.980909 262 99ft 0kts
30-Sep-17 18:53 33.872825 -117.980909 262 99ft 0kts
30-Sep-17 18:54 33.872824 -117.980915 262 99ft 0kts
30-Sep-17 18:55 33.872824 -117.980915 262 99ft 0kts
30-Sep-17 18:56 33.872824 -117.980915 262 99ft 0kts
30-Sep-17 18:57 33.872824 -117.980915 262 99ft 0kts
30-Sep-17 18:58 33.872760 -117.981053 219 99ft 6kts
30-Sep-17 18:59 33.872155 -117.981488 228 99ft 0kts
30-Sep-17 19:00 33.872130 -117.981336 58 99ft 0kts
30-Sep-17 19:01 33.873096 -117.976589 79 99ft 17kts
30-Sep-17 19:02 33.873202 -117.976068 82 99ft 0kts
30-Sep-17 19:03 33.873202 -117.976068 82 99ft 0kts
30-Sep-17 19:04 33.873204 -117.976046 83 99ft 0kts
30-Sep-17 19:05 33.872824 -117.975456 259 99ft 0kts
30-Sep-17 19:06 33.871996 -117.979890 257 99ft 87kts
30-Sep-17 19:07 33.858372 -118.010140 158 1281ft 148kts
30-Sep-17 19:08 33.856658 -117.966092 67 2513ft 156kts
30-Sep-17 19:09 33.872288 -117.925213 62 4806ft 135kts
30-Sep-17 19:10 33.891304 -117.878865 67 5676ft 182kts
30-Sep-17 19:11 33.924570 -117.829155 7 5506ft 204kts
30-Sep-17 19:12 33.980112 -117.816515 5 5568ft 207kts
30-Sep-17 19:13 34.035586 -117.798585 4 5568ft 206kts
30-Sep-17 19:14 34.090642 -117.785424 355 5948ft 182kts
30-Sep-17 19:15 34.120841 -117.814339 304 7690ft 119kts
30-Sep-17 19:16 34.136849 -117.845318 293 9798ft 112kts
30-Sep-17 19:17 34.150143 -117.884144 292 10597ft 144kts
30-Sep-17 19:18 34.174234 -117.928429 307 10604ft 168kts
30-Sep-17 19:19 34.204586 -117.972677 311 10582ft 172kts
30-Sep-17 19:20 34.231388 -118.008539 309 10580ft 172kts
30-Sep-17 19:21 34.262519 -118.052323 309 10580ft 172kts
30-Sep-17 19:22 34.293586 -118.096680 309 10561ft 172kts
30-Sep-17 19:23 34.324514 -118.141075 309 10562ft 175kts
30-Sep-17 19:24 34.355883 -118.186312 309 10579ft 175kts
30-Sep-17 19:25 34.387181 -118.231632 309 10597ft 176kts
30-Sep-17 19:26 34.414259 -118.270996 309 10598ft 177kts
30-Sep-17 19:27 34.445875 -118.316768 309 10597ft 178kts
30-Sep-17 19:28 34.477559 -118.362861 309 10597ft 178kts
30-Sep-17 19:29 34.509305 -118.409056 309 10597ft 178kts
30-Sep-17 19:30 34.540875 -118.455093 309 10596ft 178kts
30-Sep-17 19:31 34.572291 -118.500939 309 10694ft 175kts
30-Sep-17 19:32 34.603603 -118.546679 309 10697ft 177kts
30-Sep-17 19:33 34.634999 -118.592807 309 10696ft 177kts
30-Sep-17 19:34 34.666250 -118.639372 309 10696ft 178kts
30-Sep-17 19:35 34.691236 -118.677077 308 10699ft 178kts
30-Sep-17 19:36 34.722117 -118.724246 307 10699ft 178kts
30-Sep-17 19:37 34.752717 -118.771634 308 10700ft 179kts
30-Sep-17 19:38 34.783064 -118.819126 308 10697ft 176kts
30-Sep-17 19:39 34.812660 -118.866027 308 10697ft 175kts
30-Sep-17 19:40 34.842028 -118.913218 307 10697ft 174kts
30-Sep-17 19:41 34.870996 -118.960416 307 10697ft 174kts
30-Sep-17 19:42 34.899739 -119.007908 307 10697ft 174kts
30-Sep-17 19:43 34.928192 -119.055583 307 10697ft 174kts
30-Sep-17 19:44 34.956369 -119.103467 306 10696ft 174kts
30-Sep-17 19:45 34.991102 -119.141308 340 10700ft 175kts
30-Sep-17 19:46 35.037009 -119.161365 330 10598ft 178kts
30-Sep-17 19:47 35.076835 -119.196436 318 10567ft 175kts
30-Sep-17 19:48 35.111630 -119.237076 314 10571ft 174kts
30-Sep-17 19:49 35.144837 -119.280038 313 10571ft 175kts
30-Sep-17 19:50 35.177583 -119.324047 313 10571ft 175kts
30-Sep-17 19:51 35.210007 -119.368393 312 10571ft 175kts
30-Sep-17 19:52 35.242263 -119.412998 312 10570ft 175kts
30-Sep-17 19:53 35.274595 -119.457836 313 10571ft 176kts
30-Sep-17 19:54 35.306884 -119.502653 313 10570ft 176kts
30-Sep-17 19:55 35.339354 -119.547741 313 10570ft 176kts
30-Sep-17 19:56 35.371695 -119.592730 313 10570ft 176kts
30-Sep-17 19:57 35.403940 -119.637664 313 10569ft 176kts
30-Sep-17 19:58 35.433152 -119.683946 310 10590ft 176kts
30-Sep-17 19:59 35.464629 -119.730049 312 10590ft 176kts
30-Sep-17 20:00 35.497164 -119.775308 313 10590ft 177kts
30-Sep-17 20:01 35.530259 -119.820433 313 10589ft 178kts
30-Sep-17 20:02 35.563540 -119.865585 313 10589ft 178kts
30-Sep-17 20:03 35.596619 -119.910461 313 10586ft 174kts
30-Sep-17 20:04 35.628949 -119.954334 313 10591ft 171kts
30-Sep-17 20:05 35.660757 -119.997564 313 10616ft 170kts
30-Sep-17 20:06 35.692523 -120.040759 313 10615ft 170kts
30-Sep-17 20:07 35.724256 -120.083960 313 10615ft 170kts
30-Sep-17 20:08 35.755989 -120.127257 314 10614ft 170kts
30-Sep-17 20:09 35.781965 -120.176465 306 10615ft 172kts
30-Sep-17 20:10 35.809794 -120.224507 309 10614ft 172kts
30-Sep-17 20:11 35.838644 -120.271544 310 10614ft 172kts
30-Sep-17 20:12 35.867784 -120.318148 310 10614ft 172kts
30-Sep-17 20:13 35.897163 -120.364858 310 10614ft 172kts
30-Sep-17 20:14 35.926436 -120.411406 310 10614ft 172kts
30-Sep-17 20:15 35.955734 -120.458197 310 10613ft 172kts
30-Sep-17 20:16 35.984945 -120.504698 310 10613ft 172kts
30-Sep-17 20:17 36.014235 -120.551398 310 10613ft 172kts
30-Sep-17 20:18 36.043545 -120.598136 310 10613ft 172kts
30-Sep-17 20:19 36.072774 -120.644823 310 10613ft 172kts
30-Sep-17 20:20 36.099945 -120.688697 309 10614ft 172kts
30-Sep-17 20:21 36.129186 -120.735089 310 10618ft 173kts
30-Sep-17 20:22 36.158465 -120.782050 310 10618ft 171kts
30-Sep-17 20:23 36.187482 -120.828515 310 10618ft 170kts
30-Sep-17 20:24 36.216300 -120.874773 310 10618ft 170kts
30-Sep-17 20:25 36.245214 -120.921295 310 10618ft 170kts
30-Sep-17 20:26 36.274219 -120.968040 310 10651ft 171kts
30-Sep-17 20:27 36.303423 -121.015175 310 10654ft 173kts
30-Sep-17 20:28 36.332771 -121.062624 310 10654ft 174kts
30-Sep-17 20:29 36.362174 -121.110253 310 10653ft 174kts
30-Sep-17 20:30 36.391621 -121.158036 310 10653ft 174kts
30-Sep-17 20:31 36.420961 -121.205716 310 10653ft 174kts
30-Sep-17 20:32 36.446684 -121.255962 288 10659ft 178kts
30-Sep-17 20:33 36.461918 -121.313442 303 10652ft 172kts
30-Sep-17 20:34 36.488349 -121.362227 311 10652ft 170kts
30-Sep-17 20:35 36.518542 -121.407135 314 10652ft 169kts
30-Sep-17 20:36 36.549932 -121.450475 316 10652ft 169kts
30-Sep-17 20:37 36.581804 -121.493337 316 10652ft 168kts
30-Sep-17 20:38 36.613737 -121.536114 316 10651ft 168kts
30-Sep-17 20:39 36.645689 -121.578792 316 10651ft 168kts
30-Sep-17 20:40 36.677714 -121.621389 316 10651ft 168kts
30-Sep-17 20:41 36.709682 -121.665329 313 10138ft 178kts
30-Sep-17 20:42 36.740954 -121.714251 312 9365ft 187kts
30-Sep-17 20:43 36.774704 -121.762837 317 8325ft 182kts
30-Sep-17 20:44 36.807837 -121.812797 312 7833ft 183kts
30-Sep-17 20:45 36.840465 -121.862535 312 7364ft 185kts
30-Sep-17 20:46 36.873546 -121.912269 313 6842ft 191kts
30-Sep-17 20:47 36.909961 -121.959656 322 6345ft 188kts
30-Sep-17 20:48 36.950817 -121.998382 335 5673ft 186kts
30-Sep-17 20:49 36.998643 -122.020842 338 4819ft 182kts
30-Sep-17 20:50 37.038765 -122.055067 297 2845ft 168kts
30-Sep-17 20:51 37.053394 -122.092284 310 2470ft 110kts
30-Sep-17 20:52 37.067869 -122.121836 305 2086ft 94kts
30-Sep-17 20:53 37.071055 -122.128641 299 2023ft 0kts
30-Sep-17 20:54 37.071055 -122.128641 299 2023ft 0kts
30-Sep-17 20:55 37.071055 -122.128641 299 2023ft 0kts
30-Sep-17 20:56 37.072072 -122.130886 126 2023ft 8kts
30-Sep-17 20:57 37.072042 -122.130824 120 2023ft 0kts
30-Sep-17 20:58 37.072042 -122.130824 120 2023ft 0kts
30-Sep-17 20:59 37.071262 -122.129031 116 2023ft 67kts
30-Sep-17 21:00 37.042668 -122.104595 142 3522ft 140kts
30-Sep-17 21:01 37.004296 -122.077823 149 4368ft 197kts
30-Sep-17 21:02 36.955080 -122.035281 139 3642ft 217kts
30-Sep-17 21:03 36.913066 -121.989376 133 3614ft 178kts
30-Sep-17 21:04 36.883112 -121.944924 120 3527ft 167kts

Navigation Log

Ident Type
Flight plan parsing failed, navigation log unavailable